createdAt,value
2022-09-07T00:00:00.187Z,100.00
2022-09-07T00:02:27.119Z,100.00
2022-09-07T00:04:53.886Z,100.00
2022-09-07T00:07:20.722Z,100.00
2022-09-07T00:09:47.558Z,100.00
2022-09-07T00:12:14.341Z,100.00
2022-09-07T00:14:41.146Z,100.00
2022-09-07T00:17:07.933Z,100.00
2022-09-07T00:19:34.739Z,100.00
2022-09-07T00:22:01.505Z,100.00
2022-09-07T00:24:28.277Z,100.00
2022-09-07T00:26:56.562Z,100.00
2022-09-07T00:29:23.784Z,100.00
2022-09-07T00:31:50.559Z,100.00
2022-09-07T00:34:17.428Z,100.00
2022-09-07T00:36:44.302Z,100.00
2022-09-07T00:39:11.036Z,100.00
2022-09-07T00:41:37.899Z,100.00
2022-09-07T00:44:41.931Z,100.00
2022-09-07T00:47:14.384Z,100.00
2022-09-07T00:49:42.860Z,100.00
2022-09-07T00:52:12.531Z,100.00
2022-09-07T00:54:44.039Z,100.00
2022-09-07T00:57:11.302Z,100.00
2022-09-07T00:59:48.147Z,100.00
2022-09-07T01:02:17.625Z,100.00
2022-09-07T01:04:52.017Z,100.00
2022-09-07T01:07:19.457Z,100.00
2022-09-07T01:09:47.387Z,100.00
2022-09-07T01:12:14.446Z,100.00
2022-09-07T01:14:45.384Z,100.00
2022-09-07T01:17:30.903Z,100.00
2022-09-07T01:20:15.471Z,100.00
2022-09-07T01:23:00.369Z,100.00
2022-09-07T01:25:41.865Z,100.00
2022-09-07T01:28:21.973Z,100.00
2022-09-07T01:30:58.074Z,100.00
2022-09-07T01:33:55.447Z,100.00
2022-09-07T01:36:35.658Z,100.00
2022-09-07T01:39:05.073Z,100.00
2022-09-07T01:41:46.872Z,100.00
2022-09-07T01:44:35.469Z,100.00
2022-09-07T01:47:09.639Z,100.00
2022-09-07T01:49:45.652Z,100.00
2022-09-07T01:52:34.092Z,100.00
2022-09-07T01:55:08.216Z,100.00
2022-09-07T01:57:41.693Z,100.00
2022-09-07T02:00:12.704Z,100.00
2022-09-07T02:02:48.962Z,100.00
2022-09-07T02:05:24.962Z,100.00
2022-09-07T02:07:59.110Z,100.00
2022-09-07T02:10:37.068Z,100.00
2022-09-07T02:13:10.761Z,100.00
2022-09-07T02:16:01.773Z,100.00
2022-09-07T02:18:36.444Z,100.00
2022-09-07T02:21:05.791Z,100.00
2022-09-07T02:23:51.143Z,100.00
2022-09-07T02:26:21.861Z,100.00
2022-09-07T02:28:48.992Z,100.00
2022-09-07T02:31:16.089Z,100.00
2022-09-07T02:33:43.129Z,100.00
2022-09-07T02:36:13.342Z,100.00
2022-09-07T02:38:40.141Z,100.00
2022-09-07T02:41:36.893Z,100.00
2022-09-07T02:44:08.773Z,100.00
2022-09-07T02:46:41.619Z,100.00
2022-09-07T02:49:53.081Z,100.00
2022-09-07T02:52:36.342Z,100.00
2022-09-07T02:55:16.084Z,100.00
2022-09-07T02:58:03.927Z,100.00
2022-09-07T03:00:38.092Z,100.00
2022-09-07T03:03:26.677Z,100.00
2022-09-07T03:05:59.486Z,100.00
2022-09-07T03:08:38.145Z,100.00
2022-09-07T03:11:06.932Z,100.00
2022-09-07T03:13:34.324Z,100.00
2022-09-07T03:16:01.173Z,100.00
2022-09-07T03:18:28.498Z,100.00
2022-09-07T03:20:55.893Z,100.00
2022-09-07T03:23:23.227Z,100.00
2022-09-07T03:25:50.195Z,100.00
2022-09-07T03:28:17.045Z,100.00
2022-09-07T03:30:46.345Z,100.00
2022-09-07T03:33:15.955Z,100.00
2022-09-07T03:35:47.105Z,100.00
2022-09-07T03:38:13.840Z,100.00
2022-09-07T03:40:40.747Z,100.00
2022-09-07T03:43:07.482Z,100.00
2022-09-07T03:45:34.229Z,100.00
2022-09-07T03:48:00.911Z,100.00
2022-09-07T03:50:29.223Z,100.00
2022-09-07T03:52:56.176Z,100.00
2022-09-07T03:55:23.063Z,100.00
2022-09-07T03:57:49.807Z,100.00
2022-09-07T04:00:16.737Z,100.00
2022-09-07T04:02:43.577Z,100.00
2022-09-07T04:05:10.369Z,100.00
2022-09-07T04:07:37.200Z,100.00
2022-09-07T04:10:04.283Z,100.00
2022-09-07T04:12:31.022Z,100.00
2022-09-07T04:14:57.777Z,100.00
2022-09-07T04:17:24.561Z,100.00
2022-09-07T04:19:52.456Z,100.00
2022-09-07T04:22:19.270Z,100.00
2022-09-07T04:24:46.128Z,100.00
2022-09-07T04:27:13.052Z,100.00
2022-09-07T04:29:39.883Z,100.00
2022-09-07T04:32:06.614Z,100.00
2022-09-07T04:34:33.371Z,100.00
2022-09-07T04:37:00.103Z,100.00
2022-09-07T04:39:27.171Z,100.00
2022-09-07T04:41:54.851Z,100.00
2022-09-07T04:44:21.581Z,100.00
2022-09-07T04:46:48.343Z,100.00
2022-09-07T04:49:15.089Z,100.00
2022-09-07T04:51:44.708Z,100.00
2022-09-07T04:54:11.869Z,100.00
2022-09-07T04:56:38.735Z,100.00
2022-09-07T04:59:05.701Z,100.00
2022-09-07T05:01:32.519Z,100.00
2022-09-07T05:04:01.384Z,100.00
2022-09-07T05:06:28.398Z,100.00
2022-09-07T05:08:56.148Z,100.00
2022-09-07T05:11:28.777Z,100.00
2022-09-07T05:14:01.224Z,100.00
2022-09-07T05:16:29.085Z,100.00
2022-09-07T05:19:01.538Z,100.00
2022-09-07T05:21:30.926Z,100.00
2022-09-07T05:23:58.709Z,100.00
2022-09-07T05:26:28.297Z,100.00
2022-09-07T05:31:42.328Z,100.00
2022-09-07T05:36:56.495Z,100.00
2022-09-07T05:39:23.411Z,100.00
2022-09-07T05:41:50.236Z,100.00
2022-09-07T05:47:04.236Z,100.00
2022-09-07T05:49:32.292Z,100.00
2022-09-07T05:51:59.036Z,100.00
2022-09-07T05:54:25.812Z,100.00
2022-09-07T05:56:52.556Z,100.00
2022-09-07T05:59:19.302Z,100.00
2022-09-07T06:01:46.109Z,100.00
2022-09-07T06:04:12.896Z,100.00
2022-09-07T06:06:39.746Z,100.00
2022-09-07T06:09:07.129Z,100.00
2022-09-07T06:11:33.895Z,100.00
2022-09-07T06:14:00.677Z,100.00
2022-09-07T06:16:27.508Z,100.00
2022-09-07T06:18:54.635Z,100.00
2022-09-07T06:21:23.425Z,100.00
2022-09-07T06:23:51.403Z,100.00
2022-09-07T06:26:19.733Z,100.00
2022-09-07T06:28:50.253Z,100.00
2022-09-07T06:31:23.250Z,100.00
2022-09-07T06:33:51.157Z,100.00
2022-09-07T06:36:21.041Z,100.00
2022-09-07T06:38:48.938Z,100.00
2022-09-07T06:44:11.738Z,100.00
2022-09-07T06:49:25.882Z,100.00
2022-09-07T06:51:52.647Z,100.00
2022-09-07T06:57:09.267Z,100.00
2022-09-07T06:59:37.357Z,100.00
2022-09-07T07:02:05.923Z,100.00
2022-09-07T07:04:37.790Z,100.00
2022-09-07T07:07:10.673Z,100.00
2022-09-07T07:09:37.779Z,100.00
2022-09-07T07:12:04.706Z,100.00
2022-09-07T07:14:34.391Z,100.00
2022-09-07T07:17:02.386Z,100.00
2022-09-07T07:19:29.219Z,100.00
2022-09-07T07:22:29.613Z,100.00
2022-09-07T07:24:42.713Z,100.00
2022-09-07T07:27:09.581Z,100.00
2022-09-07T07:29:36.337Z,100.00
2022-09-07T07:32:04.396Z,100.00
2022-09-07T07:34:31.270Z,100.00
2022-09-07T07:36:58.011Z,100.00
2022-09-07T07:42:12.570Z,100.00
2022-09-07T07:44:39.404Z,100.00
2022-09-07T07:47:06.252Z,100.00
2022-09-07T07:49:33.175Z,100.00
2022-09-07T07:54:46.850Z,100.00
2022-09-07T07:57:14.198Z,100.00
2022-09-07T07:59:40.892Z,100.00
2022-09-07T08:02:08.874Z,100.00
2022-09-07T08:04:35.962Z,100.00
2022-09-07T08:07:09.511Z,100.00
2022-09-07T08:09:41.178Z,100.00
2022-09-07T08:12:10.072Z,100.00
2022-09-07T08:14:41.168Z,99.23
2022-09-07T08:17:11.823Z,98.89
2022-09-07T08:19:39.232Z,100.00
2022-09-07T08:22:06.436Z,97.92
2022-09-07T08:24:33.640Z,98.50
2022-09-07T08:27:00.564Z,98.14
2022-09-07T08:29:31.253Z,95.28
2022-09-07T08:32:00.453Z,96.91
2022-09-07T08:34:27.215Z,95.67
2022-09-07T08:36:54.891Z,93.36
2022-09-07T08:39:21.591Z,94.81
2022-09-07T08:42:23.087Z,97.99
2022-09-07T08:45:04.353Z,94.12
2022-09-07T08:47:36.403Z,93.61
2022-09-07T08:50:45.990Z,88.72
2022-09-07T08:53:15.478Z,91.95
2022-09-07T08:55:51.072Z,90.59
2022-09-07T08:58:47.731Z,91.33
2022-09-07T09:01:31.643Z,86.51
2022-09-07T09:07:03.783Z,84.03
2022-09-07T09:09:43.538Z,85.89
2022-09-07T09:12:15.871Z,84.73
2022-09-07T09:15:03.663Z,86.42
2022-09-07T09:17:59.659Z,87.92
2022-09-07T09:20:34.302Z,83.69
2022-09-07T09:23:13.333Z,84.62
2022-09-07T09:25:47.881Z,84.59
2022-09-07T09:28:14.433Z,80.70
2022-09-07T09:30:42.053Z,79.18
2022-09-07T09:33:26.176Z,80.60
2022-09-07T09:35:55.203Z,84.60
2022-09-07T09:38:39.634Z,81.26
2022-09-07T09:41:08.093Z,80.81
2022-09-07T09:43:40.809Z,83.21
2022-09-07T09:46:25.976Z,80.58
2022-09-07T09:48:57.198Z,79.98
2022-09-07T09:54:18.480Z,82.91
2022-09-07T09:56:47.409Z,80.46
2022-09-07T10:05:37.711Z,80.92
2022-09-07T10:08:15.437Z,82.94
2022-09-07T10:10:59.041Z,84.02
2022-09-07T10:13:31.894Z,81.48
2022-09-07T10:16:01.583Z,82.31
2022-09-07T10:18:33.738Z,81.57
2022-09-07T10:21:32.277Z,81.42
2022-09-07T10:24:05.087Z,77.61
2022-09-07T10:26:34.756Z,78.91
2022-09-07T10:29:13.102Z,80.18
2022-09-07T10:31:55.222Z,79.58
2022-09-07T10:34:45.333Z,77.87
2022-09-07T10:37:31.036Z,78.61
2022-09-07T10:40:11.319Z,80.00
2022-09-07T10:43:20.816Z,76.62
2022-09-07T10:45:46.989Z,76.82
2022-09-07T10:48:32.519Z,77.24
2022-09-07T10:51:13.503Z,78.83
2022-09-07T10:57:08.410Z,77.26
2022-09-07T11:02:37.673Z,76.01
2022-09-07T11:05:10.069Z,77.27
2022-09-07T11:08:01.481Z,77.10
2022-09-07T11:10:42.131Z,76.04
2022-09-07T11:13:15.771Z,76.19
2022-09-07T11:15:49.557Z,76.77
2022-09-07T11:18:39.650Z,75.56
2022-09-07T11:21:14.637Z,76.52
2022-09-07T11:23:47.109Z,75.11
2022-09-07T11:26:26.895Z,76.01
2022-09-07T11:32:04.726Z,78.93
2022-09-07T11:34:47.458Z,80.62
2022-09-07T11:37:32.171Z,81.78
2022-09-07T11:40:03.945Z,82.02
2022-09-07T11:42:53.013Z,83.06
2022-09-07T11:45:46.101Z,82.91
2022-09-07T11:48:30.305Z,83.16
2022-09-07T11:51:08.312Z,84.58
2022-09-07T11:53:41.730Z,86.26
2022-09-07T11:56:22.100Z,89.24
2022-09-07T11:59:11.931Z,91.06
2022-09-07T12:01:57.184Z,89.98
2022-09-07T12:04:46.921Z,93.37
2022-09-07T12:07:44.835Z,88.43
2022-09-07T12:10:29.405Z,90.09
2022-09-07T12:13:07.636Z,83.18
2022-09-07T12:16:15.412Z,81.36
2022-09-07T12:19:05.252Z,82.47
2022-09-07T12:21:53.011Z,87.11
2022-09-07T12:24:38.451Z,83.34
2022-09-07T12:27:11.328Z,84.97
2022-09-07T12:29:44.948Z,86.48
2022-09-07T12:34:59.527Z,88.20
2022-09-07T12:37:38.825Z,92.15
2022-09-07T12:40:36.248Z,95.05
2022-09-07T12:43:33.404Z,94.21
2022-09-07T12:46:00.936Z,95.16
2022-09-07T12:49:15.905Z,95.07
2022-09-07T12:54:40.925Z,98.30
2022-09-07T12:57:35.640Z,97.63
2022-09-07T13:00:18.077Z,100.00
2022-09-07T13:03:04.245Z,100.00
2022-09-07T13:06:03.287Z,100.00
2022-09-07T13:08:48.608Z,100.00
2022-09-07T13:11:21.252Z,100.00
2022-09-07T13:14:08.852Z,100.00
2022-09-07T13:19:52.088Z,100.00
2022-09-07T13:22:30.987Z,100.00
2022-09-07T13:24:59.935Z,97.45
2022-09-07T13:27:34.785Z,96.20
2022-09-07T13:30:22.364Z,97.71
2022-09-07T13:35:35.774Z,100.00
2022-09-07T13:38:04.650Z,100.00
2022-09-07T13:40:39.314Z,100.00
2022-09-07T13:43:12.951Z,100.00
2022-09-07T13:45:48.388Z,100.00
2022-09-07T13:48:20.498Z,100.00
2022-09-07T13:50:59.146Z,100.00
2022-09-07T13:53:50.057Z,100.00
2022-09-07T13:56:29.962Z,100.00
2022-09-07T13:58:56.812Z,100.00
2022-09-07T14:01:28.187Z,100.00
2022-09-07T14:04:07.531Z,100.00
2022-09-07T14:06:36.594Z,100.00
2022-09-07T14:09:20.579Z,100.00
2022-09-07T14:11:52.884Z,100.00
2022-09-07T14:14:24.589Z,100.00
2022-09-07T14:17:00.198Z,100.00
2022-09-07T14:19:49.968Z,100.00
2022-09-07T14:22:22.669Z,100.00
2022-09-07T14:25:01.583Z,100.00
2022-09-07T14:27:35.560Z,100.00
2022-09-07T14:30:38.252Z,100.00
2022-09-07T14:33:17.391Z,100.00
2022-09-07T14:35:44.251Z,100.00
2022-09-07T14:41:14.069Z,100.00
2022-09-07T14:43:58.231Z,100.00
2022-09-07T14:46:36.524Z,100.00
2022-09-07T14:49:21.898Z,100.00
2022-09-07T14:51:49.685Z,100.00
2022-09-07T14:54:20.652Z,100.00
2022-09-07T14:57:05.795Z,100.00
2022-09-07T14:59:36.882Z,100.00
2022-09-07T15:02:36.820Z,100.00
2022-09-07T15:05:18.204Z,100.00
2022-09-07T15:07:49.296Z,100.00
2022-09-07T15:10:30.298Z,100.00
2022-09-07T15:12:59.979Z,100.00
2022-09-07T15:15:39.535Z,100.00
2022-09-07T15:18:44.659Z,100.00
2022-09-07T15:21:11.442Z,100.00
2022-09-07T15:23:38.225Z,100.00
2022-09-07T15:26:05.526Z,100.00
2022-09-07T15:34:11.508Z,100.00
2022-09-07T15:36:40.814Z,100.00
2022-09-07T15:39:13.129Z,100.00
2022-09-07T15:41:39.760Z,100.00
2022-09-07T15:44:06.446Z,100.00
2022-09-07T15:46:33.146Z,100.00
2022-09-07T15:49:01.709Z,100.00
2022-09-07T15:54:16.688Z,100.00
2022-09-07T15:57:47.667Z,100.00
2022-09-07T15:59:30.646Z,100.00
2022-09-07T16:01:58.478Z,100.00
2022-09-07T16:04:25.571Z,100.00
2022-09-07T16:06:52.237Z,100.00
2022-09-07T16:09:21.905Z,100.00
2022-09-07T16:11:50.140Z,100.00
2022-09-07T16:14:18.281Z,100.00
2022-09-07T16:19:34.977Z,100.00
2022-09-07T16:22:03.253Z,100.00
2022-09-07T16:24:30.082Z,100.00
2022-09-07T16:26:56.936Z,100.00
2022-09-07T16:29:24.569Z,100.00
2022-09-07T16:34:39.789Z,100.00
2022-09-07T16:37:07.453Z,100.00
2022-09-07T16:39:34.639Z,100.00
2022-09-07T16:42:01.391Z,100.00
2022-09-07T16:44:28.151Z,100.00
2022-09-07T16:46:55.124Z,100.00
2022-09-07T16:49:22.116Z,100.00
2022-09-07T16:51:49.842Z,100.00
2022-09-07T16:54:17.517Z,100.00
2022-09-07T16:56:44.251Z,100.00
2022-09-07T16:59:16.079Z,100.00
2022-09-07T17:01:43.085Z,100.00
2022-09-07T17:04:11.512Z,100.00
2022-09-07T17:06:39.570Z,100.00
2022-09-07T17:09:06.961Z,100.00
2022-09-07T17:11:35.824Z,100.00
2022-09-07T17:14:05.092Z,100.00
2022-09-07T17:16:38.403Z,100.00
2022-09-07T17:21:53.923Z,100.00
2022-09-07T17:24:21.272Z,100.00
2022-09-07T17:26:48.319Z,100.00
2022-09-07T17:29:15.243Z,100.00
2022-09-07T17:34:30.096Z,100.00
2022-09-07T17:36:56.898Z,100.00
2022-09-07T17:39:23.740Z,100.00
2022-09-07T17:41:54.691Z,100.00
2022-09-07T17:44:23.477Z,100.00
2022-09-07T17:46:50.765Z,100.00
2022-09-07T17:49:17.886Z,100.00
2022-09-07T17:51:45.498Z,100.00
2022-09-07T17:54:15.071Z,100.00
2022-09-07T17:56:42.447Z,100.00
2022-09-07T18:01:57.085Z,100.00
2022-09-07T18:04:25.414Z,100.00
2022-09-07T18:06:54.357Z,100.00
2022-09-07T18:09:21.908Z,100.00
2022-09-07T18:11:49.860Z,100.00
2022-09-07T18:14:18.140Z,100.00
2022-09-07T18:16:46.567Z,100.00
2022-09-07T18:19:14.087Z,100.00
2022-09-07T18:21:42.519Z,100.00
2022-09-07T18:24:16.994Z,100.00
2022-09-07T18:26:49.670Z,100.00
2022-09-07T18:29:28.272Z,100.00
2022-09-07T18:31:56.824Z,100.00
2022-09-07T18:34:23.662Z,100.00
2022-09-07T18:36:50.513Z,100.00
2022-09-07T18:39:17.244Z,100.00
2022-09-07T18:41:43.882Z,100.00
2022-09-07T18:46:57.454Z,100.00
2022-09-07T18:49:25.047Z,100.00
2022-09-07T18:54:39.093Z,100.00
2022-09-07T18:57:06.895Z,100.00
2022-09-07T18:59:33.913Z,100.00
2022-09-07T19:02:04.343Z,100.00
2022-09-07T19:07:20.844Z,100.00
2022-09-07T19:09:48.423Z,100.00
2022-09-07T19:12:15.533Z,100.00
2022-09-07T19:14:45.015Z,100.00
2022-09-07T19:17:11.959Z,100.00
2022-09-07T19:19:39.552Z,100.00
2022-09-07T19:22:06.403Z,100.00
2022-09-07T19:24:33.486Z,100.00
2022-09-07T19:27:01.157Z,100.00
2022-09-07T19:29:28.486Z,100.00
2022-09-07T19:32:04.393Z,100.00
2022-09-07T19:34:43.524Z,100.00
2022-09-07T19:37:12.099Z,100.00
2022-09-07T19:39:39.217Z,100.00
2022-09-07T19:42:06.623Z,100.00
2022-09-07T19:44:33.356Z,100.00
2022-09-07T19:47:00.915Z,100.00
2022-09-07T19:49:28.736Z,100.00
2022-09-07T19:51:55.567Z,100.00
2022-09-07T19:54:22.236Z,100.00
2022-09-07T19:56:49.179Z,100.00
2022-09-07T19:59:16.070Z,100.00
2022-09-07T20:01:46.398Z,100.00
2022-09-07T20:04:19.864Z,100.00
2022-09-07T20:06:49.793Z,100.00
2022-09-07T20:09:20.046Z,100.00
2022-09-07T20:11:47.914Z,100.00
2022-09-07T20:14:16.456Z,100.00
2022-09-07T20:16:43.712Z,100.00
2022-09-07T20:19:12.273Z,100.00
2022-09-07T20:21:39.047Z,100.00
2022-09-07T20:24:05.910Z,100.00
2022-09-07T20:26:33.007Z,100.00
2022-09-07T20:29:23.842Z,100.00
2022-09-07T20:31:47.398Z,100.00
2022-09-07T20:34:14.440Z,100.00
2022-09-07T20:36:41.161Z,100.00
2022-09-07T20:39:07.923Z,100.00
2022-09-07T20:41:35.074Z,100.00
2022-09-07T20:44:03.482Z,100.00
2022-09-07T20:46:30.560Z,100.00
2022-09-07T20:48:57.920Z,100.00
2022-09-07T20:51:24.892Z,100.00
2022-09-07T20:53:52.116Z,100.00
2022-09-07T20:56:24.575Z,100.00
2022-09-07T20:58:56.610Z,100.00
2022-09-07T21:01:23.879Z,100.00
2022-09-07T21:03:55.789Z,100.00
2022-09-07T21:06:23.898Z,100.00
2022-09-07T21:08:51.761Z,100.00
2022-09-07T21:11:24.686Z,100.00
2022-09-07T21:13:56.128Z,100.00
2022-09-07T21:16:22.960Z,100.00
2022-09-07T21:18:54.404Z,100.00
2022-09-07T21:21:21.559Z,100.00
2022-09-07T21:23:48.629Z,100.00
2022-09-07T21:26:15.296Z,100.00
2022-09-07T21:28:42.401Z,100.00
2022-09-07T21:31:09.823Z,100.00
2022-09-07T21:33:37.753Z,100.00
2022-09-07T21:36:06.482Z,100.00
2022-09-07T21:38:35.003Z,100.00
2022-09-07T21:41:16.458Z,100.00
2022-09-07T21:43:43.323Z,100.00
2022-09-07T21:46:12.724Z,100.00
2022-09-07T21:48:39.781Z,100.00
2022-09-07T21:51:06.959Z,100.00
2022-09-07T21:53:34.523Z,100.00
2022-09-07T21:56:04.769Z,100.00
2022-09-07T21:58:32.253Z,100.00
2022-09-07T22:01:00.880Z,100.00
2022-09-07T22:03:27.837Z,100.00
2022-09-07T22:05:54.526Z,100.00
2022-09-07T22:08:21.160Z,100.00
2022-09-07T22:10:47.919Z,100.00
2022-09-07T22:13:14.542Z,100.00
2022-09-07T22:15:41.659Z,100.00
2022-09-07T22:18:12.056Z,100.00
2022-09-07T22:20:39.095Z,100.00
2022-09-07T22:23:05.746Z,100.00
2022-09-07T22:25:33.035Z,100.00
2022-09-07T22:27:59.834Z,100.00
2022-09-07T22:30:26.953Z,100.00
2022-09-07T22:32:53.815Z,100.00
2022-09-07T22:35:20.506Z,100.00
2022-09-07T22:37:47.193Z,100.00
2022-09-07T22:40:14.856Z,100.00
2022-09-07T22:42:41.904Z,100.00
2022-09-07T22:45:09.428Z,100.00
2022-09-07T22:47:36.157Z,100.00
2022-09-07T22:50:02.814Z,100.00
2022-09-07T22:52:29.467Z,100.00
2022-09-07T22:54:56.099Z,100.00
2022-09-07T22:57:23.500Z,100.00
2022-09-07T22:59:50.210Z,100.00
2022-09-07T23:02:16.843Z,100.00
2022-09-07T23:04:43.646Z,100.00
2022-09-07T23:07:10.624Z,100.00
2022-09-07T23:09:37.293Z,100.00
2022-09-07T23:12:04.136Z,100.00
2022-09-07T23:14:31.072Z,100.00
2022-09-07T23:16:57.705Z,100.00
2022-09-07T23:19:24.372Z,100.00
2022-09-07T23:21:51.002Z,100.00
2022-09-07T23:24:18.731Z,100.00
2022-09-07T23:26:46.862Z,100.00
2022-09-07T23:29:15.654Z,100.00
2022-09-07T23:31:42.747Z,100.00
2022-09-07T23:34:09.625Z,100.00
2022-09-07T23:36:37.227Z,100.00
2022-09-07T23:39:04.190Z,100.00
2022-09-07T23:41:31.091Z,100.00
2022-09-07T23:43:57.762Z,100.00
2022-09-07T23:46:24.593Z,100.00
2022-09-07T23:48:51.382Z,100.00
2022-09-07T23:51:23.441Z,100.00
2022-09-07T23:53:50.769Z,100.00
2022-09-07T23:56:17.424Z,100.00
2022-09-07T23:58:44.164Z,100.00
